Forest City, Pennsylvania
Current Conditions -  °F | °C
As of 6:54 AM on Thursday 23 Oct 2014 (Local Time) from KAVP Reporting Station
Moderate Rain Moderate Rain  
Wind Chill: 43°   Ceiling: 1300
Heat Index: 47°   Visibility: 6mi
Dew Point: 42°   Wind: 9mph
Humidity: 83%   Direction: 350°N
Pressure: 29.86"   Gusts: 21mph
Location:  41.65°N, 75.47°W
Report Text: KAVP 231054Z AUTO 35008G18KT 6SM RA OVC013 08/06 A2986 RMK AO2 SLP111 P0004 T00830056
Loading
Personal Weather Stations






























Interactive Weather Map
Tropical Storm Tracking
New forecast layout! Learn more

10-Day Weather Forecast

Advertisements
Track Severe Weather on mobile